createdAt,value
2022-10-16T00:00:10.715Z,2.77
2022-10-16T00:02:38.217Z,3.97
2022-10-16T00:05:06.363Z,5.00
2022-10-16T00:07:33.655Z,3.33
2022-10-16T00:10:00.925Z,4.17
2022-10-16T00:12:29.616Z,3.47
2022-10-16T00:14:56.840Z,2.63
2022-10-16T00:17:24.224Z,2.33
2022-10-16T00:19:51.714Z,4.20
2022-10-16T00:22:37.329Z,1.87
2022-10-16T00:25:05.465Z,1.90
2022-10-16T00:27:34.736Z,3.03
2022-10-16T00:30:02.179Z,3.70
2022-10-16T00:32:29.532Z,5.30
2022-10-16T00:34:56.930Z,2.20
2022-10-16T00:37:24.213Z,3.47
2022-10-16T00:39:51.543Z,4.23
2022-10-16T00:42:20.111Z,3.40
2022-10-16T00:44:53.542Z,4.80
2022-10-16T00:47:27.456Z,2.23
2022-10-16T00:50:03.145Z,3.67
2022-10-16T00:52:31.147Z,3.17
2022-10-16T00:54:59.673Z,3.77
2022-10-16T00:57:27.423Z,3.20
2022-10-16T00:59:56.363Z,1.73
2022-10-16T01:02:24.031Z,3.77
2022-10-16T01:04:54.289Z,2.20
2022-10-16T01:07:41.253Z,3.07
2022-10-16T01:10:24.387Z,2.30
2022-10-16T01:12:59.036Z,3.73
2022-10-16T01:15:34.964Z,2.80
2022-10-16T01:18:14.840Z,3.83
2022-10-16T01:20:51.617Z,2.33
2022-10-16T01:23:42.971Z,4.60
2022-10-16T01:26:32.080Z,3.20
2022-10-16T01:29:09.892Z,2.73
2022-10-16T01:31:41.796Z,3.80
2022-10-16T01:34:16.418Z,3.13
2022-10-16T01:36:49.696Z,4.07
2022-10-16T01:39:24.057Z,2.60
2022-10-16T01:42:01.833Z,2.60
2022-10-16T01:44:35.523Z,1.90
2022-10-16T01:47:04.244Z,3.50
2022-10-16T01:49:38.649Z,4.43
2022-10-16T01:52:12.248Z,5.60
2022-10-16T01:54:44.552Z,5.63
2022-10-16T01:57:17.033Z,4.37
2022-10-16T01:59:51.744Z,2.87
2022-10-16T02:02:23.641Z,4.00
2022-10-16T02:05:00.397Z,4.30
2022-10-16T02:07:28.298Z,2.97
2022-10-16T02:09:56.368Z,3.17
2022-10-16T02:12:30.882Z,3.83
2022-10-16T02:14:59.841Z,3.60
2022-10-16T02:17:28.528Z,3.80
2022-10-16T02:19:58.845Z,5.67
2022-10-16T02:22:33.684Z,4.10
2022-10-16T02:25:09.340Z,3.50
2022-10-16T02:27:46.570Z,4.90
2022-10-16T02:30:24.424Z,5.40
2022-10-16T02:32:53.811Z,5.10
2022-10-16T02:35:23.790Z,3.47
2022-10-16T02:37:53.300Z,4.87
2022-10-16T02:40:24.432Z,2.67
2022-10-16T02:42:54.608Z,4.20
2022-10-16T02:45:26.141Z,2.50
2022-10-16T02:47:53.616Z,3.83
2022-10-16T02:50:21.137Z,4.63
2022-10-16T02:52:48.414Z,2.27
2022-10-16T02:55:16.083Z,3.37
2022-10-16T02:57:43.605Z,2.17
2022-10-16T03:00:15.538Z,4.17
2022-10-16T03:02:44.505Z,3.57
2022-10-16T03:05:12.373Z,3.10
2022-10-16T03:07:39.729Z,5.73
2022-10-16T03:10:08.434Z,3.97
2022-10-16T03:12:36.057Z,3.40
2022-10-16T03:15:04.310Z,4.00
2022-10-16T03:17:33.231Z,3.30
2022-10-16T03:20:01.906Z,4.57
2022-10-16T03:22:29.201Z,2.50
2022-10-16T03:24:56.539Z,3.13
2022-10-16T03:27:24.074Z,2.87
2022-10-16T03:29:51.730Z,2.73
2022-10-16T03:32:19.464Z,2.70
2022-10-16T03:34:46.849Z,3.30
2022-10-16T03:37:15.592Z,5.40
2022-10-16T03:39:42.817Z,2.40
2022-10-16T03:42:10.111Z,2.73
2022-10-16T03:44:37.476Z,3.00
2022-10-16T03:47:04.694Z,6.57
2022-10-16T03:49:31.928Z,4.20
2022-10-16T03:51:59.351Z,3.53
2022-10-16T03:54:27.988Z,6.00
2022-10-16T03:56:55.293Z,5.00
2022-10-16T03:59:22.501Z,4.70
2022-10-16T04:01:49.763Z,4.77
2022-10-16T04:04:17.127Z,6.10
2022-10-16T04:06:44.356Z,5.57
2022-10-16T04:09:11.635Z,7.73
2022-10-16T04:11:40.379Z,9.87
2022-10-16T04:14:07.654Z,6.13
2022-10-16T04:16:34.937Z,4.73
2022-10-16T04:19:02.296Z,7.03
2022-10-16T04:21:29.555Z,6.37
2022-10-16T04:23:56.811Z,5.50
2022-10-16T04:26:24.190Z,5.97
2022-10-16T04:28:52.851Z,8.70
2022-10-16T04:31:20.259Z,6.10
2022-10-16T04:33:47.855Z,6.27
2022-10-16T04:36:15.159Z,7.67
2022-10-16T04:38:42.423Z,7.10
2022-10-16T04:41:09.783Z,10.13
2022-10-16T04:43:37.161Z,5.47
2022-10-16T04:46:06.085Z,9.97
2022-10-16T04:48:33.738Z,7.40
2022-10-16T04:51:01.096Z,8.13
2022-10-16T04:53:28.441Z,8.33
2022-10-16T04:55:55.981Z,7.73
2022-10-16T04:58:23.280Z,8.37
2022-10-16T05:00:50.595Z,6.47
2022-10-16T05:03:19.308Z,8.23
2022-10-16T05:05:48.212Z,9.90
2022-10-16T05:08:16.899Z,7.60
2022-10-16T05:10:45.845Z,8.03
2022-10-16T05:13:13.457Z,7.13
2022-10-16T05:15:41.006Z,9.10
2022-10-16T05:18:09.576Z,11.07
2022-10-16T05:20:38.190Z,7.87
2022-10-16T05:23:05.460Z,8.93
2022-10-16T05:25:32.883Z,9.43
2022-10-16T05:28:00.198Z,12.60
2022-10-16T05:30:27.507Z,12.50
2022-10-16T05:32:54.939Z,7.83
2022-10-16T05:35:22.755Z,9.63
2022-10-16T05:37:51.419Z,8.10
2022-10-16T05:40:18.750Z,9.37
2022-10-16T05:42:46.644Z,10.40
2022-10-16T05:45:13.944Z,7.50
2022-10-16T05:47:41.351Z,9.47
2022-10-16T05:50:09.695Z,10.03
2022-10-16T05:52:37.156Z,8.93
2022-10-16T05:55:07.068Z,9.10
2022-10-16T05:57:34.445Z,7.60
2022-10-16T06:00:01.743Z,8.90
2022-10-16T06:02:29.682Z,8.87
2022-10-16T06:04:56.941Z,10.00
2022-10-16T06:07:25.386Z,12.57
2022-10-16T06:09:54.034Z,8.80
2022-10-16T06:12:22.608Z,9.00
2022-10-16T06:14:50.137Z,8.07
2022-10-16T06:17:17.528Z,10.87
2022-10-16T06:19:44.889Z,7.23
2022-10-16T06:22:12.359Z,8.33
2022-10-16T06:24:39.678Z,7.17
2022-10-16T06:27:07.695Z,7.40
2022-10-16T06:29:36.453Z,8.97
2022-10-16T06:32:03.853Z,8.20
2022-10-16T06:34:31.231Z,11.33
2022-10-16T06:36:58.459Z,8.93
2022-10-16T06:39:25.701Z,12.93
2022-10-16T06:41:52.965Z,6.93
2022-10-16T06:44:20.287Z,8.70
2022-10-16T06:46:49.405Z,6.97
2022-10-16T06:49:22.377Z,7.70
2022-10-16T06:51:50.116Z,7.97
2022-10-16T06:54:18.821Z,10.20
2022-10-16T06:56:46.258Z,10.67
2022-10-16T06:59:13.502Z,6.83
2022-10-16T07:01:40.973Z,6.90
2022-10-16T07:04:09.576Z,9.83
2022-10-16T07:06:36.814Z,6.87
2022-10-16T07:09:08.156Z,8.77
2022-10-16T07:11:36.067Z,7.77
2022-10-16T07:14:04.014Z,9.07
2022-10-16T07:16:33.904Z,7.33
2022-10-16T07:19:03.395Z,6.67
2022-10-16T07:21:36.854Z,9.13
2022-10-16T07:24:07.988Z,7.87
2022-10-16T07:26:37.584Z,6.37
2022-10-16T07:29:05.492Z,6.20
2022-10-16T07:31:33.111Z,5.87
2022-10-16T07:34:01.275Z,5.37
2022-10-16T07:36:28.975Z,5.13
2022-10-16T07:38:59.781Z,4.93
2022-10-16T07:41:29.075Z,5.83
2022-10-16T07:44:00.861Z,5.90
2022-10-16T07:46:28.874Z,6.30
2022-10-16T07:48:56.326Z,5.33
2022-10-16T07:51:26.053Z,6.23
2022-10-16T07:53:54.052Z,6.37
2022-10-16T07:56:23.432Z,5.37
2022-10-16T07:58:51.900Z,4.67
2022-10-16T08:01:20.328Z,4.07
2022-10-16T08:03:50.959Z,5.67
2022-10-16T08:06:23.392Z,5.53
2022-10-16T08:08:54.321Z,4.40
2022-10-16T08:11:23.924Z,4.80
2022-10-16T08:13:51.221Z,4.63
2022-10-16T08:16:18.928Z,3.47
2022-10-16T08:18:46.750Z,6.60
2022-10-16T08:21:20.365Z,4.60
2022-10-16T08:23:52.969Z,5.57
2022-10-16T08:26:27.658Z,6.17
2022-10-16T08:28:55.566Z,6.47
2022-10-16T08:31:23.862Z,3.93
2022-10-16T08:33:52.219Z,3.23
2022-10-16T08:36:19.528Z,3.27
2022-10-16T08:38:51.154Z,2.67
2022-10-16T08:42:07.992Z,6.30
2022-10-16T08:45:16.493Z,4.90
2022-10-16T08:47:54.844Z,3.57
2022-10-16T08:50:28.803Z,3.97
2022-10-16T08:52:57.801Z,3.17
2022-10-16T08:55:38.171Z,6.07
2022-10-16T08:58:14.759Z,5.63
2022-10-16T09:00:47.572Z,3.60
2022-10-16T09:03:33.926Z,2.63
2022-10-16T09:06:33.373Z,4.33
2022-10-16T09:09:29.836Z,3.60
2022-10-16T09:12:06.969Z,3.47
2022-10-16T09:14:57.321Z,5.77
2022-10-16T09:17:40.311Z,2.97
2022-10-16T09:20:28.548Z,2.73
2022-10-16T09:23:13.807Z,2.70
2022-10-16T09:25:48.650Z,3.23
2022-10-16T09:28:17.400Z,3.17
2022-10-16T09:30:47.298Z,1.73
2022-10-16T09:33:16.851Z,2.27
2022-10-16T09:35:47.410Z,3.67
2022-10-16T09:38:30.143Z,3.37
2022-10-16T09:41:03.229Z,1.97
2022-10-16T09:43:40.442Z,2.10
2022-10-16T09:46:23.439Z,2.80
2022-10-16T09:48:55.084Z,3.53
2022-10-16T09:51:27.764Z,4.00
2022-10-16T09:54:01.402Z,4.87
2022-10-16T09:56:33.303Z,2.97
2022-10-16T09:59:09.845Z,1.97
2022-10-16T10:01:41.858Z,4.23
2022-10-16T10:04:11.145Z,3.17
2022-10-16T10:06:45.362Z,3.53
2022-10-16T10:09:21.064Z,2.17
2022-10-16T10:11:55.379Z,3.40
2022-10-16T10:14:31.687Z,2.87
2022-10-16T10:17:17.878Z,2.67
2022-10-16T10:19:54.957Z,3.30
2022-10-16T10:22:28.420Z,2.73
2022-10-16T10:25:01.343Z,4.50
2022-10-16T10:27:45.397Z,5.50
2022-10-16T10:30:21.771Z,3.77
2022-10-16T10:33:13.054Z,4.87
2022-10-16T10:35:51.914Z,3.47
2022-10-16T10:38:45.874Z,5.37
2022-10-16T10:41:38.227Z,4.33
2022-10-16T10:44:20.399Z,3.50
2022-10-16T10:46:55.413Z,2.37
2022-10-16T10:49:49.740Z,3.23
2022-10-16T10:52:53.110Z,4.00
2022-10-16T10:55:35.810Z,4.40
2022-10-16T10:58:32.296Z,2.07
2022-10-16T11:01:09.424Z,3.13
2022-10-16T11:04:12.401Z,2.40
2022-10-16T11:06:47.842Z,3.13
2022-10-16T11:09:23.659Z,3.03
2022-10-16T11:12:00.646Z,4.37
2022-10-16T11:14:35.567Z,2.20
2022-10-16T11:17:09.535Z,3.30
2022-10-16T11:19:45.012Z,2.57
2022-10-16T11:22:22.123Z,3.60
2022-10-16T11:24:55.736Z,3.10
2022-10-16T11:27:40.333Z,2.73
2022-10-16T11:30:19.425Z,2.63
2022-10-16T11:33:18.754Z,2.63
2022-10-16T11:35:54.529Z,4.90
2022-10-16T11:38:33.831Z,10.97
2022-10-16T11:41:19.661Z,4.00
2022-10-16T11:44:01.512Z,2.77
2022-10-16T11:46:33.294Z,4.27
2022-10-16T11:49:13.829Z,3.57
2022-10-16T11:51:49.671Z,4.47
2022-10-16T11:54:29.392Z,2.87
2022-10-16T11:57:08.269Z,5.67
2022-10-16T11:59:46.453Z,4.63
2022-10-16T12:02:38.218Z,5.10
2022-10-16T12:05:21.347Z,3.10
2022-10-16T12:08:03.984Z,4.13
2022-10-16T12:13:35.282Z,3.17
2022-10-16T12:16:23.488Z,6.87
2022-10-16T12:19:10.856Z,3.70
2022-10-16T12:21:38.553Z,5.70
2022-10-16T12:24:07.520Z,6.53
2022-10-16T12:26:42.727Z,2.60
2022-10-16T12:29:24.843Z,5.50
2022-10-16T12:31:58.445Z,2.83
2022-10-16T12:34:35.212Z,3.17
2022-10-16T12:37:15.729Z,4.27
2022-10-16T12:39:43.574Z,2.87
2022-10-16T12:42:34.666Z,1.93
2022-10-16T12:45:03.051Z,3.80
2022-10-16T12:47:52.379Z,3.67
2022-10-16T12:50:34.179Z,3.97
2022-10-16T12:53:04.375Z,3.17
2022-10-16T12:55:46.794Z,3.97
2022-10-16T12:58:45.657Z,4.53
2022-10-16T13:01:28.486Z,3.97
2022-10-16T13:04:41.391Z,3.57
2022-10-16T13:07:41.994Z,3.03
2022-10-16T13:10:24.473Z,4.53
2022-10-16T13:13:41.719Z,4.23
2022-10-16T13:16:22.228Z,3.27
2022-10-16T13:19:07.647Z,5.53
2022-10-16T13:21:50.288Z,5.10
2022-10-16T13:24:48.804Z,4.40
2022-10-16T13:27:33.975Z,5.10
2022-10-16T13:30:14.916Z,4.53
2022-10-16T13:32:47.545Z,4.10
2022-10-16T13:35:24.942Z,2.67
2022-10-16T13:37:52.539Z,3.33
2022-10-16T13:40:24.497Z,4.33
2022-10-16T13:42:54.124Z,5.17
2022-10-16T13:45:26.218Z,7.67
2022-10-16T13:48:04.547Z,5.00
2022-10-16T13:50:32.298Z,4.80
2022-10-16T13:53:07.033Z,4.67
2022-10-16T13:55:34.814Z,3.57
2022-10-16T13:58:13.197Z,2.67
2022-10-16T14:00:55.556Z,6.47
2022-10-16T14:03:23.257Z,5.57
2022-10-16T14:05:54.633Z,5.33
2022-10-16T14:08:23.354Z,5.50
2022-10-16T14:10:55.028Z,2.63
2022-10-16T14:13:32.401Z,3.77
2022-10-16T14:16:08.565Z,3.87
2022-10-16T14:18:40.073Z,6.53
2022-10-16T14:21:15.693Z,6.20
2022-10-16T14:23:44.511Z,4.87
2022-10-16T14:26:18.562Z,7.80
2022-10-16T14:28:49.198Z,4.17
2022-10-16T14:31:31.604Z,5.23
2022-10-16T14:34:00.196Z,6.70
2022-10-16T14:36:29.577Z,2.73
2022-10-16T14:39:05.003Z,4.70
2022-10-16T14:41:41.801Z,4.33
2022-10-16T14:44:13.790Z,4.23
2022-10-16T14:46:45.355Z,5.80
2022-10-16T14:49:20.995Z,3.77
2022-10-16T14:51:49.162Z,5.07
2022-10-16T14:54:18.688Z,5.13
2022-10-16T14:56:51.204Z,4.57
2022-10-16T14:59:33.226Z,4.03
2022-10-16T15:02:17.251Z,3.30
2022-10-16T15:04:44.550Z,2.87
2022-10-16T15:07:11.948Z,3.57
2022-10-16T15:09:39.320Z,3.93
2022-10-16T15:12:07.118Z,5.47
2022-10-16T15:14:34.526Z,6.03
2022-10-16T15:17:03.477Z,4.50
2022-10-16T15:19:30.897Z,7.70
2022-10-16T15:21:58.434Z,3.47
2022-10-16T15:24:28.617Z,5.10
2022-10-16T15:26:56.625Z,5.13
2022-10-16T15:29:24.205Z,3.77
2022-10-16T15:31:51.804Z,3.50
2022-10-16T15:34:24.780Z,3.13
2022-10-16T15:36:52.299Z,3.27
2022-10-16T15:39:23.783Z,4.33
2022-10-16T15:41:55.158Z,6.60
2022-10-16T15:44:30.691Z,4.43
2022-10-16T15:46:58.013Z,4.27
2022-10-16T15:49:26.635Z,3.90
2022-10-16T15:51:56.283Z,5.07
2022-10-16T15:54:23.862Z,7.10
2022-10-16T15:56:51.187Z,6.57
2022-10-16T15:59:18.513Z,5.20
2022-10-16T16:01:45.879Z,3.73
2022-10-16T16:04:31.893Z,3.43
2022-10-16T16:07:02.706Z,3.57
2022-10-16T16:09:30.727Z,3.60
2022-10-16T16:12:01.346Z,5.90
2022-10-16T16:14:29.422Z,3.47
2022-10-16T16:16:56.893Z,5.23
2022-10-16T16:19:24.524Z,11.27
2022-10-16T16:21:52.216Z,5.93
2022-10-16T16:24:21.222Z,7.53
2022-10-16T16:26:48.502Z,8.03
2022-10-16T16:29:17.010Z,10.00
2022-10-16T16:31:44.333Z,5.23
2022-10-16T16:34:11.682Z,5.57
2022-10-16T16:36:39.911Z,7.87
2022-10-16T16:39:08.450Z,4.80
2022-10-16T16:41:37.124Z,5.90
2022-10-16T16:44:08.401Z,8.17
2022-10-16T16:46:35.888Z,6.20
2022-10-16T16:49:04.183Z,7.00
2022-10-16T16:51:31.502Z,6.50
2022-10-16T16:53:59.001Z,11.73
2022-10-16T16:56:27.253Z,8.17
2022-10-16T16:58:58.038Z,8.53
2022-10-16T17:01:29.363Z,6.50
2022-10-16T17:03:59.095Z,5.50
2022-10-16T17:06:30.704Z,6.37
2022-10-16T17:09:01.952Z,5.07
2022-10-16T17:11:29.452Z,5.70
2022-10-16T17:14:00.056Z,6.93
2022-10-16T17:16:31.696Z,4.40
2022-10-16T17:19:02.052Z,5.57
2022-10-16T17:21:30.717Z,14.20
2022-10-16T17:23:58.183Z,8.60
2022-10-16T17:26:26.301Z,7.47
2022-10-16T17:28:55.751Z,9.67
2022-10-16T17:31:29.022Z,8.17
2022-10-16T17:33:58.060Z,6.73
2022-10-16T17:36:26.195Z,8.93
2022-10-16T17:38:53.543Z,5.50
2022-10-16T17:41:24.291Z,12.17
2022-10-16T17:43:52.240Z,10.27
2022-10-16T17:46:23.548Z,8.03
2022-10-16T17:48:54.600Z,9.37
2022-10-16T17:51:25.551Z,10.37
2022-10-16T17:53:56.415Z,8.60
2022-10-16T17:56:25.396Z,9.40
2022-10-16T17:58:55.642Z,11.97
2022-10-16T18:01:26.813Z,12.13
2022-10-16T18:03:58.416Z,11.33
2022-10-16T18:06:27.504Z,12.67
2022-10-16T18:08:57.846Z,12.33
2022-10-16T18:11:26.200Z,13.97
2022-10-16T18:13:54.858Z,13.97
2022-10-16T18:16:23.901Z,13.50
2022-10-16T18:18:51.957Z,12.13
2022-10-16T18:21:21.082Z,14.63
2022-10-16T18:23:51.930Z,14.03
2022-10-16T18:26:21.328Z,15.07
2022-10-16T18:28:49.045Z,12.50
2022-10-16T18:31:17.694Z,16.20
2022-10-16T18:33:50.689Z,11.87
2022-10-16T18:36:22.587Z,13.90
2022-10-16T18:38:50.319Z,13.80
2022-10-16T18:41:18.720Z,14.37
2022-10-16T18:43:46.081Z,11.27
2022-10-16T18:46:15.901Z,12.23
2022-10-16T18:48:43.999Z,11.70
2022-10-16T18:51:16.277Z,13.93
2022-10-16T18:53:47.035Z,13.07
2022-10-16T18:56:16.923Z,12.67
2022-10-16T18:58:48.283Z,8.27
2022-10-16T19:01:22.209Z,7.87
2022-10-16T19:03:55.280Z,11.00
2022-10-16T19:06:22.870Z,11.73
2022-10-16T19:08:51.763Z,10.03
2022-10-16T19:11:21.826Z,10.40
2022-10-16T19:13:50.099Z,11.87
2022-10-16T19:16:21.374Z,15.50
2022-10-16T19:18:51.849Z,10.83
2022-10-16T19:21:20.086Z,13.10
2022-10-16T19:23:53.129Z,13.80
2022-10-16T19:26:21.912Z,15.00
2022-10-16T19:28:50.827Z,10.20
2022-10-16T19:31:20.993Z,12.97
2022-10-16T19:33:52.993Z,13.00
2022-10-16T19:36:23.690Z,14.90
2022-10-16T19:38:56.787Z,12.10
2022-10-16T19:41:25.738Z,14.03
2022-10-16T19:43:54.028Z,15.60
2022-10-16T19:46:24.388Z,11.73
2022-10-16T19:48:56.410Z,11.47
2022-10-16T19:51:24.594Z,11.60
2022-10-16T19:53:57.531Z,12.43
2022-10-16T19:56:27.601Z,10.30
2022-10-16T19:58:57.332Z,9.03
2022-10-16T20:01:27.210Z,8.97
2022-10-16T20:03:54.820Z,11.90
2022-10-16T20:06:22.617Z,10.77
2022-10-16T20:08:52.257Z,10.87
2022-10-16T20:11:23.365Z,9.57
2022-10-16T20:13:51.362Z,10.70
2022-10-16T20:16:19.933Z,9.43
2022-10-16T20:18:49.996Z,8.87
2022-10-16T20:21:20.726Z,8.20
2022-10-16T20:23:49.070Z,8.87
2022-10-16T20:26:17.427Z,11.43
2022-10-16T20:28:46.403Z,10.17
2022-10-16T20:31:18.325Z,14.73
2022-10-16T20:33:45.684Z,12.53
2022-10-16T20:36:14.460Z,13.37
2022-10-16T20:38:43.820Z,15.87
2022-10-16T20:41:12.371Z,10.90
2022-10-16T20:46:16.590Z,11.10
2022-10-16T20:48:44.782Z,11.97
2022-10-16T20:51:14.881Z,11.17
2022-10-16T20:53:42.507Z,11.47
2022-10-16T20:56:10.101Z,11.67
2022-10-16T20:58:37.449Z,10.63
2022-10-16T21:01:07.124Z,13.73
2022-10-16T21:03:36.445Z,13.63
2022-10-16T21:06:05.364Z,9.80
2022-10-16T21:08:36.366Z,10.07
2022-10-16T21:11:12.120Z,8.97
2022-10-16T21:13:40.098Z,10.07
2022-10-16T21:16:08.389Z,12.23
2022-10-16T21:18:43.337Z,8.70
2022-10-16T21:21:20.093Z,9.83
2022-10-16T21:23:47.938Z,14.43
2022-10-16T21:26:15.607Z,12.03
2022-10-16T21:28:43.047Z,8.80
2022-10-16T21:31:18.733Z,10.77
2022-10-16T21:33:48.654Z,10.83
2022-10-16T21:36:19.119Z,10.53
2022-10-16T21:41:22.767Z,8.53
2022-10-16T21:43:51.560Z,8.73
2022-10-16T21:46:22.725Z,11.87
2022-10-16T21:48:53.464Z,7.70
2022-10-16T21:51:20.814Z,8.57
2022-10-16T21:53:48.047Z,11.10
2022-10-16T21:56:17.563Z,11.20
2022-10-16T21:58:45.972Z,9.30
2022-10-16T22:01:15.705Z,9.83
2022-10-16T22:03:43.799Z,8.30
2022-10-16T22:06:16.059Z,5.83
2022-10-16T22:08:45.405Z,10.07
2022-10-16T22:11:18.483Z,8.87
2022-10-16T22:13:52.639Z,10.27
2022-10-16T22:16:25.689Z,10.27
2022-10-16T22:18:54.283Z,10.10
2022-10-16T22:21:24.337Z,7.80
2022-10-16T22:23:51.631Z,9.50
2022-10-16T22:26:19.055Z,7.53
2022-10-16T22:28:46.428Z,9.10
2022-10-16T22:31:14.981Z,8.00
2022-10-16T22:33:43.607Z,7.87
2022-10-16T22:36:13.979Z,7.70
2022-10-16T22:38:42.773Z,6.60
2022-10-16T22:41:13.361Z,6.63
2022-10-16T22:43:44.020Z,8.90
2022-10-16T22:46:15.966Z,8.67
2022-10-16T22:48:43.865Z,6.83
2022-10-16T22:51:16.676Z,7.53
2022-10-16T22:53:47.082Z,5.17
2022-10-16T22:56:15.731Z,7.63
2022-10-16T22:58:43.937Z,5.20
2022-10-16T23:01:14.992Z,5.83
2022-10-16T23:03:42.477Z,8.47
2022-10-16T23:06:10.083Z,4.53
2022-10-16T23:08:37.532Z,6.20
2022-10-16T23:11:08.694Z,4.97
2022-10-16T23:13:43.480Z,5.73
2022-10-16T23:16:14.858Z,5.40
2022-10-16T23:18:43.170Z,4.60
2022-10-16T23:21:16.583Z,7.20
2022-10-16T23:23:44.542Z,5.87
2022-10-16T23:26:16.970Z,6.60
2022-10-16T23:28:44.858Z,7.13
2022-10-16T23:31:13.741Z,5.03
2022-10-16T23:33:41.918Z,5.67
2022-10-16T23:36:12.315Z,5.13
2022-10-16T23:38:39.873Z,4.43
2022-10-16T23:41:07.589Z,3.47
2022-10-16T23:43:36.464Z,5.17
2022-10-16T23:46:05.278Z,4.83
2022-10-16T23:48:32.616Z,8.20
2022-10-16T23:51:00.292Z,4.23
2022-10-16T23:53:27.627Z,5.03
2022-10-16T23:55:54.965Z,4.33
2022-10-16T23:58:22.474Z,4.17
